createdAt,value
2023-04-26T00:00:05.329Z,19.65
2023-04-26T00:00:36.901Z,19.66
2023-04-26T00:01:08.517Z,19.63
2023-04-26T00:01:40.101Z,19.62
2023-04-26T00:02:11.819Z,19.61
2023-04-26T00:02:43.349Z,19.60
2023-04-26T00:03:14.963Z,19.63
2023-04-26T00:03:46.871Z,19.64
2023-04-26T00:04:18.881Z,19.65
2023-04-26T00:04:53.801Z,19.62
2023-04-26T00:05:25.634Z,19.65
2023-04-26T00:05:57.304Z,19.65
2023-04-26T00:06:28.889Z,19.64
2023-04-26T00:07:00.513Z,19.61
2023-04-26T00:07:32.101Z,19.62
2023-04-26T00:08:03.645Z,19.64
2023-04-26T00:08:35.517Z,19.65
2023-04-26T00:09:07.074Z,19.67
2023-04-26T00:09:38.628Z,19.68
2023-04-26T00:10:10.425Z,19.65
2023-04-26T00:10:42.100Z,19.63
2023-04-26T00:11:13.671Z,19.62
2023-04-26T00:11:45.303Z,19.61
2023-04-26T00:12:16.932Z,19.64
2023-04-26T00:12:51.351Z,19.64
2023-04-26T00:13:23.008Z,19.65
2023-04-26T00:13:54.524Z,19.63
2023-04-26T00:14:25.975Z,19.62
2023-04-26T00:14:57.532Z,19.61
2023-04-26T00:15:29.198Z,19.65
2023-04-26T00:16:00.742Z,19.66
2023-04-26T00:16:32.153Z,19.64
2023-04-26T00:17:03.758Z,19.65
2023-04-26T00:17:35.472Z,19.66
2023-04-26T00:18:07.129Z,19.69
2023-04-26T00:18:38.757Z,19.69
2023-04-26T00:19:10.339Z,19.69
2023-04-26T00:19:41.929Z,19.67
2023-04-26T00:20:13.573Z,19.70
2023-04-26T00:20:45.383Z,19.73
2023-04-26T00:21:16.927Z,19.68
2023-04-26T00:21:48.542Z,19.70
2023-04-26T00:22:20.210Z,19.68
2023-04-26T00:22:51.807Z,19.70
2023-04-26T00:23:23.395Z,19.70
2023-04-26T00:23:55.028Z,19.69
2023-04-26T00:24:26.628Z,19.73
2023-04-26T00:24:58.181Z,19.77
2023-04-26T00:25:29.801Z,19.79
2023-04-26T00:26:01.405Z,19.82
2023-04-26T00:26:33.018Z,19.81
2023-04-26T00:27:04.618Z,19.80
2023-04-26T00:27:36.176Z,19.80
2023-04-26T00:28:07.850Z,19.80
2023-04-26T00:28:39.454Z,19.81
2023-04-26T00:29:11.048Z,19.80
2023-04-26T00:29:42.618Z,19.81
2023-04-26T00:30:14.489Z,19.82
2023-04-26T00:30:46.111Z,19.82
2023-04-26T00:31:17.886Z,19.79
2023-04-26T00:31:49.704Z,19.82
2023-04-26T00:32:21.330Z,19.82
2023-04-26T00:32:52.996Z,19.82
2023-04-26T00:33:24.892Z,19.84
2023-04-26T00:33:56.435Z,19.87
2023-04-26T00:34:34.384Z,19.86
2023-04-26T00:35:06.211Z,19.81
2023-04-26T00:35:37.785Z,19.82
2023-04-26T00:36:09.215Z,19.80
2023-04-26T00:36:40.792Z,19.76
2023-04-26T00:37:12.933Z,19.75
2023-04-26T00:37:44.643Z,19.75
2023-04-26T00:38:16.287Z,19.76
2023-04-26T00:38:47.820Z,19.73
2023-04-26T00:39:19.316Z,19.72
2023-04-26T00:39:50.852Z,19.76
2023-04-26T00:40:22.491Z,19.78
2023-04-26T00:40:54.056Z,19.74
2023-04-26T00:41:25.815Z,19.72
2023-04-26T00:41:57.679Z,19.72
2023-04-26T00:42:29.322Z,19.72
2023-04-26T00:43:00.964Z,19.75
2023-04-26T00:43:32.569Z,19.78
2023-04-26T00:44:04.267Z,19.78
2023-04-26T00:44:35.718Z,19.76
2023-04-26T00:45:07.601Z,19.76
2023-04-26T00:45:39.281Z,19.75
2023-04-26T00:46:10.945Z,19.75
2023-04-26T00:46:42.674Z,19.73
2023-04-26T00:47:14.298Z,19.74
2023-04-26T00:47:46.059Z,19.72
2023-04-26T00:48:17.676Z,19.76
2023-04-26T00:48:49.294Z,19.78
2023-04-26T00:49:21.650Z,19.76
2023-04-26T00:49:53.244Z,19.75
2023-04-26T00:50:24.718Z,19.77
2023-04-26T00:50:56.396Z,19.76
2023-04-26T00:51:27.948Z,19.76
2023-04-26T00:51:59.652Z,19.74
2023-04-26T00:52:31.287Z,19.73
2023-04-26T00:53:02.896Z,19.77
2023-04-26T00:53:34.512Z,19.78
2023-04-26T00:54:06.120Z,19.79
2023-04-26T00:54:37.719Z,19.75
2023-04-26T00:55:09.427Z,19.73
2023-04-26T00:55:41.327Z,19.73
2023-04-26T00:56:13.007Z,19.73
2023-04-26T00:56:44.734Z,19.73
2023-04-26T00:57:16.376Z,19.73
2023-04-26T00:57:47.984Z,19.73
2023-04-26T00:58:19.679Z,19.72
2023-04-26T00:58:51.143Z,19.71
2023-04-26T00:59:22.950Z,19.74
2023-04-26T00:59:54.540Z,19.74
2023-04-26T01:00:26.272Z,19.76
2023-04-26T01:00:57.871Z,19.74
2023-04-26T01:01:29.396Z,19.74
2023-04-26T01:02:01.009Z,19.73
2023-04-26T01:02:32.877Z,19.75
2023-04-26T01:03:04.619Z,19.79
2023-04-26T01:03:36.288Z,19.79
2023-04-26T01:04:07.974Z,19.80
2023-04-26T01:04:39.632Z,19.78
2023-04-26T01:05:11.257Z,19.75
2023-04-26T01:05:42.860Z,19.75
2023-04-26T01:06:14.494Z,19.77
2023-04-26T01:06:46.180Z,19.76
2023-04-26T01:07:17.748Z,19.76
2023-04-26T01:07:49.419Z,19.78
2023-04-26T01:08:21.164Z,19.78
2023-04-26T01:08:53.080Z,19.78
2023-04-26T01:09:24.591Z,19.80
2023-04-26T01:09:56.043Z,19.80
2023-04-26T01:10:27.682Z,19.81
2023-04-26T01:10:59.298Z,19.79
2023-04-26T01:11:31.270Z,19.78
2023-04-26T01:12:03.030Z,19.77
2023-04-26T01:12:34.580Z,19.83
2023-04-26T01:13:06.552Z,19.79
2023-04-26T01:13:38.222Z,19.76
2023-04-26T01:14:09.817Z,19.78
2023-04-26T01:14:41.483Z,19.77
2023-04-26T01:15:13.023Z,19.77
2023-04-26T01:15:47.163Z,19.75
2023-04-26T01:16:19.257Z,19.76
2023-04-26T01:16:50.963Z,19.73
2023-04-26T01:17:22.739Z,19.76
2023-04-26T01:17:54.372Z,19.79
2023-04-26T01:18:26.030Z,19.80
2023-04-26T01:18:57.580Z,19.80
2023-04-26T01:19:29.073Z,19.80
2023-04-26T01:20:00.780Z,19.79
2023-04-26T01:20:32.363Z,19.78
2023-04-26T01:21:03.998Z,19.78
2023-04-26T01:21:35.666Z,19.81
2023-04-26T01:22:07.268Z,19.83
2023-04-26T01:22:38.913Z,19.81
2023-04-26T01:23:10.533Z,19.82
2023-04-26T01:23:42.133Z,19.81
2023-04-26T01:24:13.767Z,19.80
2023-04-26T01:24:45.821Z,19.79
2023-04-26T01:25:17.490Z,19.81
2023-04-26T01:25:49.196Z,19.82
2023-04-26T01:26:20.798Z,19.81
2023-04-26T01:26:52.463Z,19.81
2023-04-26T01:27:24.100Z,19.79
2023-04-26T01:27:55.732Z,19.81
2023-04-26T01:28:27.284Z,19.80
2023-04-26T01:28:58.915Z,19.81
2023-04-26T01:29:30.521Z,19.78
2023-04-26T01:30:02.273Z,19.77
2023-04-26T01:30:33.831Z,19.80
2023-04-26T01:31:05.606Z,19.80
2023-04-26T01:31:37.637Z,19.81
2023-04-26T01:32:09.376Z,19.80
2023-04-26T01:32:40.983Z,19.83
2023-04-26T01:33:12.542Z,19.82
2023-04-26T01:33:44.126Z,19.79
2023-04-26T01:34:15.797Z,19.79
2023-04-26T01:34:47.400Z,19.78
2023-04-26T01:35:19.058Z,19.78
2023-04-26T01:35:50.729Z,19.81
2023-04-26T01:36:22.409Z,19.82
2023-04-26T01:36:54.013Z,19.77
2023-04-26T01:37:25.664Z,19.80
2023-04-26T01:37:57.318Z,19.82
2023-04-26T01:38:28.965Z,19.80
2023-04-26T01:39:00.577Z,19.83
2023-04-26T01:39:32.166Z,19.81
2023-04-26T01:40:03.846Z,19.80
2023-04-26T01:40:35.419Z,19.80
2023-04-26T01:41:07.114Z,19.84
2023-04-26T01:41:38.686Z,19.83
2023-04-26T01:42:10.364Z,19.81
2023-04-26T01:42:41.950Z,19.82
2023-04-26T01:43:13.596Z,19.80
2023-04-26T01:43:45.207Z,19.81
2023-04-26T01:44:16.867Z,19.79
2023-04-26T01:44:48.593Z,19.77
2023-04-26T01:45:20.216Z,19.80
2023-04-26T01:45:51.851Z,19.80
2023-04-26T01:46:23.503Z,19.79
2023-04-26T01:46:55.205Z,19.80
2023-04-26T01:47:26.874Z,19.80
2023-04-26T01:47:58.638Z,19.78
2023-04-26T01:48:30.346Z,19.78
2023-04-26T01:49:01.948Z,19.79
2023-04-26T01:49:33.591Z,19.78
2023-04-26T01:50:05.699Z,19.78
2023-04-26T01:50:37.456Z,19.78
2023-04-26T01:51:09.165Z,19.78
2023-04-26T01:51:40.772Z,19.79
2023-04-26T01:52:12.462Z,19.78
2023-04-26T01:52:44.043Z,19.81
2023-04-26T01:53:15.665Z,19.80
2023-04-26T01:53:47.555Z,19.80
2023-04-26T01:54:19.239Z,19.81
2023-04-26T01:54:50.868Z,19.83
2023-04-26T01:55:22.539Z,19.83
2023-04-26T01:55:54.225Z,19.81
2023-04-26T01:56:25.819Z,19.83
2023-04-26T01:56:57.429Z,19.80
2023-04-26T01:57:28.952Z,19.81
2023-04-26T01:58:00.594Z,19.78
2023-04-26T01:58:32.224Z,19.77
2023-04-26T01:59:04.016Z,19.79
2023-04-26T01:59:35.587Z,19.79
2023-04-26T02:00:07.610Z,19.79
2023-04-26T02:00:39.193Z,19.79
2023-04-26T02:01:10.856Z,19.79
2023-04-26T02:01:42.510Z,19.78
2023-04-26T02:02:14.229Z,19.79
2023-04-26T02:02:46.027Z,19.79
2023-04-26T02:03:17.774Z,19.78
2023-04-26T02:03:49.600Z,19.82
2023-04-26T02:04:21.472Z,19.81
2023-04-26T02:04:53.191Z,19.80
2023-04-26T02:05:24.995Z,19.80
2023-04-26T02:05:56.707Z,19.79
2023-04-26T02:06:28.374Z,19.79
2023-04-26T02:07:00.151Z,19.80
2023-04-26T02:07:31.804Z,19.83
2023-04-26T02:08:03.533Z,19.80
2023-04-26T02:08:35.579Z,19.82
2023-04-26T02:09:07.158Z,19.82
2023-04-26T02:09:38.699Z,19.81
2023-04-26T02:10:10.402Z,19.80
2023-04-26T02:10:42.020Z,19.79
2023-04-26T02:11:13.725Z,19.82
2023-04-26T02:11:45.409Z,19.83
2023-04-26T02:12:17.001Z,19.82
2023-04-26T02:12:48.640Z,19.85
2023-04-26T02:13:20.333Z,19.84
2023-04-26T02:13:51.882Z,19.86
2023-04-26T02:14:23.505Z,19.85
2023-04-26T02:14:55.105Z,19.86
2023-04-26T02:15:26.609Z,19.86
2023-04-26T02:15:58.178Z,19.85
2023-04-26T02:16:29.958Z,19.85
2023-04-26T02:17:01.624Z,19.83
2023-04-26T02:17:33.280Z,19.83
2023-04-26T02:18:04.915Z,19.81
2023-04-26T02:18:36.840Z,19.83
2023-04-26T02:19:08.527Z,19.83
2023-04-26T02:19:40.314Z,19.82
2023-04-26T02:20:12.187Z,19.84
2023-04-26T02:20:43.740Z,19.81
2023-04-26T02:21:16.737Z,19.85
2023-04-26T02:21:51.820Z,19.82
2023-04-26T02:22:23.648Z,19.83
2023-04-26T02:22:54.927Z,19.81
2023-04-26T02:23:26.387Z,19.84
2023-04-26T02:23:58.077Z,19.84
2023-04-26T02:24:30.311Z,19.83
2023-04-26T02:25:02.970Z,19.82
2023-04-26T02:25:34.529Z,19.81
2023-04-26T02:26:06.499Z,19.80
2023-04-26T02:26:38.148Z,19.80
2023-04-26T02:27:09.859Z,19.82
2023-04-26T02:27:41.342Z,19.82
2023-04-26T02:28:13.047Z,19.82
2023-04-26T02:28:44.696Z,19.83
2023-04-26T02:29:16.354Z,19.80
2023-04-26T02:29:48.002Z,19.81
2023-04-26T02:30:19.573Z,19.81
2023-04-26T02:30:51.176Z,19.82
2023-04-26T02:31:23.294Z,19.81
2023-04-26T02:31:54.923Z,19.81
2023-04-26T02:32:26.641Z,19.79
2023-04-26T02:32:58.293Z,19.81
2023-04-26T02:33:29.986Z,19.82
2023-04-26T02:34:01.601Z,19.83
2023-04-26T02:34:33.236Z,19.84
2023-04-26T02:35:04.913Z,19.82
2023-04-26T02:35:36.642Z,19.83
2023-04-26T02:36:08.448Z,19.82
2023-04-26T02:36:40.205Z,19.80
2023-04-26T02:37:11.779Z,19.82
2023-04-26T02:37:43.353Z,19.82
2023-04-26T02:38:14.988Z,19.83
2023-04-26T02:38:46.591Z,19.85
2023-04-26T02:39:18.157Z,19.84
2023-04-26T02:39:50.258Z,19.84
2023-04-26T02:40:21.892Z,19.83
2023-04-26T02:40:59.926Z,19.83
2023-04-26T02:41:31.806Z,19.80
2023-04-26T02:42:03.468Z,19.82
2023-04-26T02:42:35.088Z,19.82
2023-04-26T02:43:06.736Z,19.82
2023-04-26T02:43:38.370Z,19.81
2023-04-26T02:44:10.173Z,19.83
2023-04-26T02:44:41.755Z,19.83
2023-04-26T02:45:13.437Z,19.84
2023-04-26T02:45:44.981Z,19.85
2023-04-26T02:46:17.433Z,19.88
2023-04-26T02:46:49.240Z,19.88
2023-04-26T02:47:20.957Z,19.89
2023-04-26T02:47:52.511Z,19.92
2023-04-26T02:48:24.446Z,19.91
2023-04-26T02:48:56.011Z,19.90
2023-04-26T02:49:27.649Z,19.89
2023-04-26T02:49:59.355Z,19.88
2023-04-26T02:50:30.947Z,19.87
2023-04-26T02:51:02.562Z,19.86
2023-04-26T02:51:34.200Z,19.91
2023-04-26T02:52:05.869Z,19.90
2023-04-26T02:52:37.418Z,19.88
2023-04-26T02:53:09.000Z,19.87
2023-04-26T02:53:40.744Z,19.87
2023-04-26T02:54:12.386Z,19.86
2023-04-26T02:54:44.027Z,19.86
2023-04-26T02:55:15.641Z,19.86
2023-04-26T02:55:47.237Z,19.89
2023-04-26T02:56:18.847Z,19.90
2023-04-26T02:56:50.455Z,19.91
2023-04-26T02:57:22.080Z,19.88
2023-04-26T02:57:53.707Z,19.88
2023-04-26T02:58:25.287Z,19.89
2023-04-26T02:58:57.019Z,19.90
2023-04-26T02:59:29.444Z,19.92
2023-04-26T03:00:00.950Z,19.94
2023-04-26T03:00:32.420Z,19.92
2023-04-26T03:01:04.096Z,19.91
2023-04-26T03:01:35.794Z,19.89
2023-04-26T03:02:07.544Z,19.90
2023-04-26T03:02:39.578Z,19.87
2023-04-26T03:03:11.342Z,19.90
2023-04-26T03:03:43.122Z,19.90
2023-04-26T03:04:14.999Z,19.89
2023-04-26T03:04:46.690Z,19.90
2023-04-26T03:05:18.362Z,19.90
2023-04-26T03:05:50.095Z,19.91
2023-04-26T03:06:21.692Z,19.90
2023-04-26T03:06:53.311Z,19.88
2023-04-26T03:07:24.838Z,19.90
2023-04-26T03:07:56.341Z,19.89
2023-04-26T03:08:28.011Z,19.87
2023-04-26T03:08:59.684Z,19.89
2023-04-26T03:09:31.226Z,19.88
2023-04-26T03:10:02.866Z,19.86
2023-04-26T03:10:34.426Z,19.86
2023-04-26T03:11:38.533Z,19.85
2023-04-26T03:12:09.847Z,19.84
2023-04-26T03:12:41.246Z,19.85
2023-04-26T03:13:12.593Z,19.87
2023-04-26T03:13:43.933Z,19.85
2023-04-26T03:14:15.230Z,19.85
2023-04-26T03:14:46.505Z,19.86
2023-04-26T03:15:17.863Z,19.88
2023-04-26T03:15:49.161Z,19.88
2023-04-26T03:16:20.479Z,19.87
2023-04-26T03:16:51.965Z,19.87
2023-04-26T03:17:23.341Z,19.87
2023-04-26T03:17:54.737Z,19.89
2023-04-26T03:18:26.046Z,19.90
2023-04-26T03:18:57.391Z,19.92
2023-04-26T03:19:28.700Z,19.90
2023-04-26T03:20:02.379Z,19.87
2023-04-26T03:20:34.134Z,19.85
2023-04-26T03:21:08.074Z,19.85
2023-04-26T03:21:39.380Z,19.91
2023-04-26T03:22:10.702Z,19.88
2023-04-26T03:22:41.972Z,19.86
2023-04-26T03:23:13.302Z,19.85
2023-04-26T03:23:44.591Z,19.84
2023-04-26T03:24:15.900Z,19.84
2023-04-26T03:24:47.228Z,19.83
2023-04-26T03:25:18.533Z,19.83
2023-04-26T03:25:49.836Z,19.81
2023-04-26T03:26:21.169Z,19.82
2023-04-26T03:26:52.502Z,19.82
2023-04-26T03:27:23.911Z,19.85
2023-04-26T03:27:55.272Z,19.85
2023-04-26T03:28:26.611Z,19.88
2023-04-26T03:28:57.899Z,19.87
2023-04-26T03:29:29.323Z,19.87
2023-04-26T03:30:00.668Z,19.88
2023-04-26T03:30:31.964Z,19.91
2023-04-26T03:31:03.353Z,19.87
2023-04-26T03:31:34.678Z,19.87
2023-04-26T03:32:06.000Z,19.86
2023-04-26T03:32:37.360Z,19.89
2023-04-26T03:33:08.726Z,19.90
2023-04-26T03:33:40.048Z,19.90
2023-04-26T03:34:11.353Z,19.93
2023-04-26T03:34:42.680Z,19.95
2023-04-26T03:35:13.978Z,19.94
2023-04-26T03:35:45.300Z,19.92
2023-04-26T03:36:16.794Z,19.90
2023-04-26T03:36:48.094Z,19.88
2023-04-26T03:37:19.430Z,19.92
2023-04-26T03:37:53.158Z,19.92
2023-04-26T03:38:24.782Z,19.91
2023-04-26T03:38:56.105Z,19.91
2023-04-26T03:39:27.417Z,19.91
2023-04-26T03:39:58.725Z,19.90
2023-04-26T03:40:30.033Z,19.89
2023-04-26T03:41:01.405Z,19.87
2023-04-26T03:41:32.773Z,19.86
2023-04-26T03:42:04.123Z,19.92
2023-04-26T03:42:35.882Z,19.92
2023-04-26T03:43:07.210Z,19.90
2023-04-26T03:43:38.505Z,19.89
2023-04-26T03:44:09.801Z,19.88
2023-04-26T03:44:41.157Z,19.89
2023-04-26T03:45:12.457Z,19.89
2023-04-26T03:45:46.399Z,19.92
2023-04-26T03:46:17.762Z,19.89
2023-04-26T03:46:49.128Z,19.91
2023-04-26T03:47:20.466Z,19.89
2023-04-26T03:47:51.832Z,19.89
2023-04-26T03:48:23.169Z,19.90
2023-04-26T03:48:54.657Z,19.92
2023-04-26T03:49:26.072Z,19.91
2023-04-26T03:49:57.530Z,19.93
2023-04-26T03:50:28.854Z,19.91
2023-04-26T03:51:00.121Z,19.93
2023-04-26T03:51:31.462Z,19.92
2023-04-26T03:52:02.834Z,19.90
2023-04-26T03:52:34.161Z,19.88
2023-04-26T03:53:05.525Z,19.88
2023-04-26T03:53:36.847Z,19.91
2023-04-26T03:54:08.216Z,19.92
2023-04-26T03:54:39.552Z,19.94
2023-04-26T03:55:10.902Z,19.92
2023-04-26T03:55:42.252Z,19.95
2023-04-26T03:56:13.551Z,19.93
2023-04-26T03:56:44.974Z,19.90
2023-04-26T03:57:16.334Z,19.90
2023-04-26T03:57:47.852Z,19.94
2023-04-26T03:58:19.157Z,19.94
2023-04-26T03:58:50.669Z,19.94
2023-04-26T03:59:22.191Z,19.91
2023-04-26T03:59:53.562Z,19.91
2023-04-26T04:00:24.850Z,19.92
2023-04-26T04:00:56.474Z,19.88
2023-04-26T04:01:27.802Z,19.87
2023-04-26T04:01:59.170Z,19.86
2023-04-26T04:02:30.725Z,19.88
2023-04-26T04:03:02.249Z,19.88
2023-04-26T04:03:33.862Z,19.90
2023-04-26T04:04:05.462Z,19.88
2023-04-26T04:04:37.049Z,19.88
2023-04-26T04:05:08.582Z,19.89
2023-04-26T04:05:40.022Z,19.91
2023-04-26T04:06:11.350Z,19.91
2023-04-26T04:06:42.661Z,19.93
2023-04-26T04:07:13.980Z,19.89
2023-04-26T04:07:45.310Z,19.93
2023-04-26T04:08:16.625Z,19.89
2023-04-26T04:08:47.945Z,19.93
2023-04-26T04:09:19.229Z,19.94
2023-04-26T04:09:50.550Z,19.96
2023-04-26T04:10:22.177Z,19.93
2023-04-26T04:10:53.544Z,19.93
2023-04-26T04:11:24.846Z,19.92
2023-04-26T04:11:56.209Z,19.91
2023-04-26T04:12:27.547Z,19.91
2023-04-26T04:12:58.838Z,19.90
2023-04-26T04:13:30.223Z,19.93
2023-04-26T04:14:01.559Z,19.90
2023-04-26T04:14:32.852Z,19.92
2023-04-26T04:15:04.436Z,19.94
2023-04-26T04:15:35.787Z,19.92
2023-04-26T04:16:07.174Z,19.96
2023-04-26T04:16:38.741Z,19.96
2023-04-26T04:17:10.067Z,19.98
2023-04-26T04:17:41.391Z,19.99
2023-04-26T04:18:12.766Z,19.97
2023-04-26T04:18:44.102Z,19.94
2023-04-26T04:19:15.410Z,19.92
2023-04-26T04:19:46.701Z,19.93
2023-04-26T04:20:18.073Z,19.92
2023-04-26T04:20:49.371Z,19.94
2023-04-26T04:21:20.649Z,19.96
2023-04-26T04:21:51.974Z,19.94
2023-04-26T04:22:23.289Z,19.94
2023-04-26T04:22:54.637Z,19.94
2023-04-26T04:23:25.970Z,19.94
2023-04-26T04:23:57.325Z,19.93
2023-04-26T04:24:28.646Z,19.94
2023-04-26T04:24:59.965Z,19.91
2023-04-26T04:25:31.263Z,19.92
2023-04-26T04:26:02.571Z,19.93
2023-04-26T04:26:33.864Z,19.95
2023-04-26T04:27:05.203Z,19.96
2023-04-26T04:27:36.798Z,19.93
2023-04-26T04:28:08.110Z,19.97
2023-04-26T04:28:39.791Z,19.93
2023-04-26T04:29:11.082Z,19.94
2023-04-26T04:29:42.418Z,19.92
2023-04-26T04:30:13.861Z,19.94
2023-04-26T04:30:45.175Z,19.92
2023-04-26T04:31:16.629Z,19.91
2023-04-26T04:31:48.042Z,19.93
2023-04-26T04:32:19.571Z,19.92
2023-04-26T04:32:50.952Z,19.90
2023-04-26T04:33:22.249Z,19.91
2023-04-26T04:33:53.585Z,19.93
2023-04-26T04:34:24.925Z,19.91
2023-04-26T04:34:56.439Z,19.93
2023-04-26T04:35:27.747Z,19.93
2023-04-26T04:35:59.075Z,19.90
2023-04-26T04:36:30.377Z,19.90
2023-04-26T04:37:01.729Z,19.92
2023-04-26T04:37:33.108Z,19.91
2023-04-26T04:38:04.571Z,19.92
2023-04-26T04:38:35.852Z,19.92
2023-04-26T04:39:07.135Z,19.95
2023-04-26T04:39:38.464Z,19.93
2023-04-26T04:40:11.514Z,19.92
2023-04-26T04:40:43.136Z,19.95
2023-04-26T04:41:14.473Z,19.91
2023-04-26T04:41:45.836Z,19.96
2023-04-26T04:42:17.145Z,19.98
2023-04-26T04:42:48.471Z,20.00
2023-04-26T04:43:19.813Z,20.02
2023-04-26T04:43:51.122Z,19.97
2023-04-26T04:44:22.427Z,19.96
2023-04-26T04:44:54.040Z,19.94
2023-04-26T04:45:25.341Z,19.93
2023-04-26T04:45:56.641Z,19.93
2023-04-26T04:46:28.039Z,19.95
2023-04-26T04:46:59.538Z,19.92
2023-04-26T04:47:30.986Z,19.92
2023-04-26T04:48:02.372Z,19.92
2023-04-26T04:48:33.731Z,19.96
2023-04-26T04:49:05.084Z,19.94
2023-04-26T04:49:36.442Z,19.93
2023-04-26T04:50:07.924Z,19.94
2023-04-26T04:50:39.405Z,19.98
2023-04-26T04:51:10.753Z,19.99
2023-04-26T04:51:42.050Z,19.97
2023-04-26T04:52:13.367Z,19.94
2023-04-26T04:52:44.758Z,19.98
2023-04-26T04:53:16.146Z,19.99
2023-04-26T04:53:47.513Z,19.94
2023-04-26T04:54:18.837Z,19.93
2023-04-26T04:54:50.163Z,19.93
2023-04-26T04:55:21.498Z,19.97
2023-04-26T04:55:52.849Z,19.94
2023-04-26T04:56:24.252Z,19.96
2023-04-26T04:56:55.561Z,19.93
2023-04-26T04:57:27.073Z,19.97
2023-04-26T04:57:58.399Z,19.96
2023-04-26T04:58:29.688Z,19.94
2023-04-26T04:59:01.070Z,19.94
2023-04-26T04:59:32.403Z,19.97
2023-04-26T05:00:04.286Z,19.98
2023-04-26T05:00:36.255Z,19.98
2023-04-26T05:01:07.574Z,20.00
2023-04-26T05:01:39.081Z,19.97
2023-04-26T05:02:10.605Z,19.97
2023-04-26T05:02:42.182Z,19.94
2023-04-26T05:03:16.864Z,19.97
2023-04-26T05:03:48.610Z,19.97
2023-04-26T05:04:20.168Z,19.93
2023-04-26T05:04:51.820Z,19.96
2023-04-26T05:05:23.197Z,19.95
2023-04-26T05:05:54.512Z,19.94
2023-04-26T05:06:26.723Z,19.93
2023-04-26T05:06:58.044Z,19.95
2023-04-26T05:07:29.411Z,19.94
2023-04-26T05:08:00.764Z,19.97
2023-04-26T05:08:32.068Z,19.94
2023-04-26T05:09:03.460Z,19.93
2023-04-26T05:09:34.958Z,19.94
2023-04-26T05:10:06.507Z,19.97
2023-04-26T05:10:37.858Z,20.00
2023-04-26T05:11:09.145Z,19.99
2023-04-26T05:11:40.484Z,19.99
2023-04-26T05:12:11.824Z,20.00
2023-04-26T05:12:43.115Z,20.01
2023-04-26T05:13:14.441Z,19.98
2023-04-26T05:13:46.155Z,19.99
2023-04-26T05:14:17.466Z,19.99
2023-04-26T05:14:48.806Z,19.99
2023-04-26T05:15:20.089Z,20.02
2023-04-26T05:15:51.414Z,20.01
2023-04-26T05:16:22.811Z,19.99
2023-04-26T05:16:54.313Z,19.98
2023-04-26T05:17:25.668Z,20.00
2023-04-26T05:17:57.050Z,19.97
2023-04-26T05:18:28.391Z,19.94
2023-04-26T05:18:59.777Z,19.99
2023-04-26T05:19:31.164Z,19.96
2023-04-26T05:20:02.599Z,19.97
2023-04-26T05:20:33.912Z,19.96
2023-04-26T05:21:05.296Z,20.00
2023-04-26T05:21:36.651Z,19.99
2023-04-26T05:22:07.954Z,19.97
2023-04-26T05:22:39.315Z,19.99
2023-04-26T05:23:10.617Z,19.97
2023-04-26T05:23:41.950Z,19.99
2023-04-26T05:24:13.260Z,19.97
2023-04-26T05:24:47.698Z,20.00
2023-04-26T05:25:20.249Z,19.99
2023-04-26T05:25:53.562Z,20.00
2023-04-26T05:26:24.861Z,19.99
2023-04-26T05:26:57.792Z,19.99
2023-04-26T05:27:29.219Z,20.05
2023-04-26T05:28:00.523Z,20.01
2023-04-26T05:28:31.835Z,20.01
2023-04-26T05:29:03.175Z,20.01
2023-04-26T05:29:34.522Z,20.02
2023-04-26T05:30:06.276Z,20.02
2023-04-26T05:30:37.729Z,20.03
2023-04-26T05:31:11.243Z,20.02
2023-04-26T05:31:42.948Z,20.01
2023-04-26T05:32:14.292Z,20.01
2023-04-26T05:32:45.762Z,19.99
2023-04-26T05:33:17.236Z,20.00
2023-04-26T05:33:48.558Z,20.03
2023-04-26T05:34:19.923Z,20.01
2023-04-26T05:34:51.236Z,19.99
2023-04-26T05:35:22.844Z,20.01
2023-04-26T05:35:54.248Z,20.02
2023-04-26T05:36:26.430Z,20.03
2023-04-26T05:36:59.291Z,20.04
2023-04-26T05:37:30.617Z,20.02
2023-04-26T05:38:01.949Z,20.02
2023-04-26T05:38:33.320Z,20.03
2023-04-26T05:39:04.638Z,20.03
2023-04-26T05:39:35.957Z,20.02
2023-04-26T05:40:07.646Z,20.05
2023-04-26T05:40:38.941Z,20.05
2023-04-26T05:41:10.297Z,20.05
2023-04-26T05:41:41.628Z,20.06
2023-04-26T05:42:12.942Z,20.08
2023-04-26T05:42:44.312Z,20.09
2023-04-26T05:43:15.705Z,20.08
2023-04-26T05:43:47.287Z,20.10
2023-04-26T05:44:18.636Z,20.11
2023-04-26T05:44:49.968Z,20.08
2023-04-26T05:45:21.270Z,20.11
2023-04-26T05:45:52.948Z,20.12
2023-04-26T05:46:24.434Z,20.09
2023-04-26T05:46:55.975Z,20.08
2023-04-26T05:47:27.298Z,20.08
2023-04-26T05:47:58.714Z,20.09
2023-04-26T05:48:30.120Z,20.08
2023-04-26T05:49:01.414Z,20.05
2023-04-26T05:49:32.728Z,20.05
2023-04-26T05:50:04.146Z,20.07
2023-04-26T05:50:35.441Z,20.08
2023-04-26T05:51:06.751Z,20.09
2023-04-26T05:51:38.106Z,20.08
2023-04-26T05:52:09.424Z,20.12
2023-04-26T05:52:40.748Z,20.10
2023-04-26T05:53:12.048Z,20.10
2023-04-26T05:53:43.334Z,20.11
2023-04-26T05:54:14.678Z,20.10
2023-04-26T05:54:46.008Z,20.10
2023-04-26T05:55:17.321Z,20.08
2023-04-26T05:55:48.645Z,20.06
2023-04-26T05:56:19.975Z,20.05
2023-04-26T05:56:51.295Z,20.06
2023-04-26T05:57:22.752Z,20.06
2023-04-26T05:57:54.164Z,20.07
2023-04-26T05:58:25.471Z,20.06
2023-04-26T05:58:57.579Z,20.07
2023-04-26T05:59:28.926Z,20.07
2023-04-26T06:00:00.316Z,20.07
2023-04-26T06:00:31.628Z,20.07
2023-04-26T06:01:02.945Z,20.07
2023-04-26T06:01:34.351Z,20.10
2023-04-26T06:02:05.705Z,20.13
2023-04-26T06:02:37.160Z,20.12
2023-04-26T06:03:08.775Z,20.14
2023-04-26T06:03:40.412Z,20.10
2023-04-26T06:04:12.138Z,20.10
2023-04-26T06:04:43.848Z,20.10
2023-04-26T06:05:15.468Z,20.09
2023-04-26T06:05:47.099Z,20.10
2023-04-26T06:06:18.590Z,20.08
2023-04-26T06:06:49.909Z,20.12
2023-04-26T06:07:21.248Z,20.13
2023-04-26T06:07:52.826Z,20.15
2023-04-26T06:08:24.148Z,20.16
2023-04-26T06:08:55.534Z,20.15
2023-04-26T06:09:26.972Z,20.12
2023-04-26T06:09:58.288Z,20.13
2023-04-26T06:10:29.827Z,20.12
2023-04-26T06:11:01.343Z,20.13
2023-04-26T06:11:32.729Z,20.16
2023-04-26T06:12:04.159Z,20.17
2023-04-26T06:12:35.505Z,20.17
2023-04-26T06:13:06.819Z,20.18
2023-04-26T06:13:38.092Z,20.14
2023-04-26T06:14:19.745Z,20.18
2023-04-26T06:15:00.443Z,20.16
2023-04-26T06:15:31.758Z,20.17
2023-04-26T06:16:03.120Z,20.17
2023-04-26T06:16:34.436Z,20.18
2023-04-26T06:17:05.856Z,20.15
2023-04-26T06:17:37.279Z,20.17
2023-04-26T06:18:08.690Z,20.18
2023-04-26T06:18:40.093Z,20.17
2023-04-26T06:19:11.390Z,20.16
2023-04-26T06:19:42.783Z,20.16
2023-04-26T06:20:14.104Z,20.17
2023-04-26T06:20:46.216Z,20.18
2023-04-26T06:21:17.526Z,20.20
2023-04-26T06:21:48.835Z,20.19
2023-04-26T06:22:20.224Z,20.18
2023-04-26T06:22:51.596Z,20.20
2023-04-26T06:23:22.960Z,20.19
2023-04-26T06:23:54.661Z,20.20
2023-04-26T06:24:26.175Z,20.20
2023-04-26T06:24:57.609Z,20.18
2023-04-26T06:25:28.910Z,20.19
2023-04-26T06:26:00.209Z,20.17
2023-04-26T06:26:31.497Z,20.19
2023-04-26T06:27:02.789Z,20.19
2023-04-26T06:27:34.108Z,20.15
2023-04-26T06:28:05.511Z,20.16
2023-04-26T06:28:36.800Z,20.16
2023-04-26T06:29:08.125Z,20.17
2023-04-26T06:29:39.451Z,20.17
2023-04-26T06:30:10.937Z,20.15
2023-04-26T06:30:42.434Z,20.12
2023-04-26T06:31:13.820Z,20.10
2023-04-26T06:31:45.221Z,20.11
2023-04-26T06:32:16.542Z,20.12
2023-04-26T06:32:47.843Z,20.11
2023-04-26T06:33:19.209Z,20.12
2023-04-26T06:33:50.652Z,20.15
2023-04-26T06:34:22.118Z,20.15
2023-04-26T06:34:53.434Z,20.12
2023-04-26T06:35:24.747Z,20.12
2023-04-26T06:35:56.063Z,20.10
2023-04-26T06:36:27.404Z,20.09
2023-04-26T06:36:58.769Z,20.07
2023-04-26T06:37:30.107Z,20.09
2023-04-26T06:38:01.408Z,20.08
2023-04-26T06:38:32.763Z,20.08
2023-04-26T06:39:04.116Z,20.12
2023-04-26T06:39:35.466Z,20.15
2023-04-26T06:40:07.216Z,20.14
2023-04-26T06:40:38.567Z,20.17
2023-04-26T06:41:09.928Z,20.17
2023-04-26T06:41:41.279Z,20.19
2023-04-26T06:42:12.576Z,20.22
2023-04-26T06:42:43.869Z,20.20
2023-04-26T06:43:15.165Z,20.18
2023-04-26T06:43:46.557Z,20.18
2023-04-26T06:44:17.870Z,20.17
2023-04-26T06:44:49.186Z,20.16
2023-04-26T06:45:20.457Z,20.18
2023-04-26T06:45:51.798Z,20.18
2023-04-26T06:46:23.158Z,20.17
2023-04-26T06:46:54.532Z,20.15
2023-04-26T06:47:25.908Z,20.17